| time (UTC) | temp C | wind direction | speed KPH | gust KPH | rain 1hr cm | rain 24hr cm | rain mn cm | humidity % | barometer mb |
| 20260906125036 | 33 | 285 | 8.0 | 8.0 | 0.00 | 0.00 | 0.00 | 23 | 1012.5 |
| 20260906124536 | 33 | 289 | 6.4 | 8.0 | 0.00 | 0.00 | 0.00 | 21 | 1012.5 |
| 20260906124040 | 33 | 274 | 4.8 | 4.8 | 0.00 | 0.00 | 0.00 | 22 | 1012.5 |
| 20260906123536 | 33 | 294 | 14.5 | 20.9 | 0.00 | 0.00 | 0.00 | 21 | 1012.9 |
| 20260906123036 | 33 | 298 | 19.3 | 27.4 | 0.00 | 0.00 | 0.00 | 21 | 1012.9 |
| 20260906122536 | 33 | 331 | 9.7 | 14.5 | 0.00 | 0.00 | 0.00 | 21 | 1012.9 |
| 20260906122036 | 33 | 174 | 6.4 | 12.9 | 0.00 | 0.00 | 0.00 | 21 | 1012.5 |
| 20260906121536 | 33 | 247 | 11.3 | 14.5 | 0.00 | 0.00 | 0.00 | 20 | 1012.9 |
| 20260906121036 | 33 | 270 | 11.3 | 17.7 | 0.00 | 0.00 | 0.00 | 20 | 1012.9 |
| 20260906120536 | 33 | 278 | 11.3 | 22.5 | 0.00 | 0.00 | 0.00 | 18 | 1012.9 |
| 20260906120036 | 33 | 285 | 11.3 | 16.1 | 0.00 | 0.00 | 0.00 | 18 | 1012.9 |
| 20260906115536 | 33 | 258 | 6.4 | 9.7 | 0.00 | 0.00 | 0.00 | 19 | 1012.9 |
| 20260906115036 | 33 | 242 | 8.0 | 8.0 | 0.00 | 0.00 | 0.00 | 18 | 1012.9 |
| 20260906114536 | 33 | 271 | 12.9 | 16.1 | 0.00 | 0.00 | 0.00 | 18 | 1012.9 |
| 20260906114037 | 33 | 255 | 9.7 | 12.9 | 0.00 | 0.00 | 0.00 | 20 | 1012.9 |
| 20260906113538 | 33 | 273 | 9.7 | 12.9 | 0.00 | 0.00 | 0.00 | 20 | 1013.2 |
| 20260906113036 | 33 | 306 | 14.5 | 20.9 | 0.00 | 0.00 | 0.00 | 19 | 1013.2 |
| 20260906112536 | 33 | 319 | 8.0 | 11.3 | 0.00 | 0.00 | 0.00 | 20 | 1013.2 |
| 20260906112036 | 33 | 63 | 11.3 | 24.1 | 0.00 | 0.00 | 0.00 | 19 | 1013.2 |
| 20260906111537 | 33 | 249 | 9.7 | 11.3 | 0.00 | 0.00 | 0.00 | 20 | 1013.2 |
| 20260906111036 | 33 | 290 | 9.7 | 11.3 | 0.00 | 0.00 | 0.00 | 19 | 1013.2 |
| 20260906110536 | 32 | 343 | 14.5 | 14.5 | 0.00 | 0.00 | 0.00 | 20 | 1013.2 |
| 20260906110036 | 33 | 3 | 6.4 | 9.7 | 0.00 | 0.00 | 0.00 | 20 | 1013.2 |
| 20260906105537 | 32 | 188 | 6.4 | 11.3 | 0.00 | 0.00 | 0.00 | 19 | 1013.2 |
| 20260906105036 | 33 | 278 | 8.0 | 9.7 | 0.00 | 0.00 | 0.00 | 19 | 1013.5 |
| 20260906104536 | 33 | 304 | 9.7 | 12.9 | 0.00 | 0.00 | 0.00 | 21 | 1013.2 |
| 20260906104036 | 33 | 311 | 20.9 | 24.1 | 0.00 | 0.00 | 0.00 | 20 | 1013.2 |
| 20260906103536 | 32 | 267 | 4.8 | 4.8 | 0.00 | 0.00 | 0.00 | 22 | 1013.2 |
| 20260906103036 | 32 | 248 | 6.4 | 9.7 | 0.00 | 0.00 | 0.00 | 22 | 1013.2 |
| 20260906102536 | 32 | 296 | 14.5 | 17.7 | 0.00 | 0.00 | 0.00 | 23 | 1013.2 |
| 20260906102036 | 32 | 270 | 14.5 | 20.9 | 0.00 | 0.00 | 0.00 | 22 | 1013.5 |
| 20260906101536 | 32 | 239 | 9.7 | 12.9 | 0.00 | 0.00 | 0.00 | 22 | 1013.5 |
| 20260906101036 | 32 | 326 | 4.8 | 8.0 | 0.00 | 0.00 | 0.00 | 22 | 1013.5 |
| 20260906100537 | 32 | 269 | 6.4 | 9.7 | 0.00 | 0.00 | 0.00 | 23 | 1013.5 |
| 20260906100036 | 32 | 333 | 16.1 | 20.9 | 0.00 | 0.00 | 0.00 | 22 | 1013.5 |
| 20260906095537 | 32 | 285 | 4.8 | 4.8 | 0.00 | 0.00 | 0.00 | 22 | 1013.5 |
| 20260906095036 | 32 | 298 | 14.5 | 20.9 | 0.00 | 0.00 | 0.00 | 22 | 1013.5 |
| 20260906094536 | 32 | 321 | 16.1 | 17.7 | 0.00 | 0.00 | 0.00 | 21 | 1013.5 |
| 20260906094037 | 32 | 262 | 14.5 | 25.7 | 0.00 | 0.00 | 0.00 | 21 | 1013.5 |
| 20260906093541 | 32 | 286 | 9.7 | 16.1 | 0.00 | 0.00 | 0.00 | 19 | 1013.9 |
| 20260906093036 | 32 | 303 | 12.9 | 17.7 | 0.00 | 0.00 | 0.00 | 21 | 1013.9 |
| 20260906092536 | 31 | 306 | 12.9 | 14.5 | 0.00 | 0.00 | 0.00 | 22 | 1013.9 |
| 20260906092036 | 31 | 272 | 11.3 | 14.5 | 0.00 | 0.00 | 0.00 | 23 | 1013.9 |
| 20260906091537 | 31 | 278 | 8.0 | 8.0 | 0.00 | 0.00 | 0.00 | 23 | 1013.9 |
| 20260906091036 | 31 | 323 | 3.2 | 4.8 | 0.00 | 0.00 | 0.00 | 23 | 1013.9 |
| 20260906090536 | 31 | 279 | 6.4 | 11.3 | 0.00 | 0.00 | 0.00 | 23 | 1013.9 |
| 20260906090037 | 31 | 262 | 12.9 | 22.5 | 0.00 | 0.00 | 0.00 | 24 | 1013.9 |
| 20260906085537 | 31 | 262 | 6.4 | 9.7 | 0.00 | 0.00 | 0.00 | 25 | 1014.2 |
| 20260906085036 | 31 | 237 | 12.9 | 16.1 | 0.00 | 0.00 | 0.00 | 25 | 1014.2 |
| 20260906084539 | 31 | 261 | 11.3 | 17.7 | 0.00 | 0.00 | 0.00 | 25 | 1014.2 |
| 20260906084037 | 31 | 252 | 8.0 | 12.9 | 0.00 | 0.00 | 0.00 | 25 | 1014.2 |
| 20260906083536 | 31 | 247 | 17.7 | 25.7 | 0.00 | 0.00 | 0.00 | 25 | 1014.2 |
| 20260906083037 | 31 | 330 | 11.3 | 14.5 | 0.00 | 0.00 | 0.00 | 25 | 1014.2 |
| 20260906082537 | 31 | 309 | 3.2 | 4.8 | 0.00 | 0.00 | 0.00 | 24 | 1014.2 |
| 20260906082036 | 30 | 274 | 8.0 | 12.9 | 0.00 | 0.00 | 0.00 | 24 | 1014.2 |
| 20260906081536 | 30 | 278 | 14.5 | 16.1 | 0.00 | 0.00 | 0.00 | 25 | 1014.2 |
| 20260906081036 | 30 | 293 | 12.9 | 17.7 | 0.00 | 0.00 | 0.00 | 26 | 1014.6 |
| 20260906080536 | 30 | 266 | 11.3 | 16.1 | 0.00 | 0.00 | 0.00 | 27 | 1014.2 |
| 20260906080036 | 30 | 199 | 4.8 | 3.2 | 0.00 | 0.00 | 0.00 | 34 | 1014.6 |
| 20260906075536 | 30 | 90 | 3.2 | 3.2 | 0.00 | 0.00 | 0.00 | 33 | 1014.6 |
| 20260906075036 | 30 | 207 | 4.8 | 8.0 | 0.00 | 0.00 | 0.00 | 36 | 1014.6 |
| 20260906074536 | 29 | 97 | 1.6 | 1.6 | 0.00 | 0.00 | 0.00 | 38 | 1014.9 |
| 20260906074036 | 28 | 261 | 1.6 | 1.6 | 0.00 | 0.00 | 0.00 | 40 | 1014.6 |
| 20260906073537 | 28 | 108 | 4.8 | 8.0 | 0.00 | 0.00 | 0.00 | 42 | 1014.9 |
| 20260906073036 | 28 | 84 | 8.0 | 9.7 | 0.00 | 0.00 | 0.00 | 42 | 1014.6 |
| 20260906072536 | 28 | 199 | 1.6 | 3.2 | 0.00 | 0.00 | 0.00 | 43 | 1014.9 |
| 20260906072037 | 27 | 227 | 1.6 | 1.6 | 0.00 | 0.00 | 0.00 | 44 | 1014.9 |
| 20260906071536 | 27 | 157 | 1.6 | 1.6 | 0.00 | 0.00 | 0.00 | 45 | 1014.9 |
| 20260906071037 | 27 | 107 | 0.0 | 0.0 | 0.00 | 0.00 | 0.00 | 46 | 1015.2 |
| 20260906070536 | 27 | 177 | 3.2 | 3.2 | 0.00 | 0.00 | 0.00 | 46 | 1014.9 |
| 20260906070037 | 27 | 126 | 4.8 | 4.8 | 0.00 | 0.00 | 0.00 | 45 | 1014.9 |
| 20260906065536 | 27 | 100 | 0.0 | 0.0 | 0.00 | 0.00 | 0.00 | 46 | 1015.2 |
| 20260906065036 | 26 | 148 | 0.0 | 0.0 | 0.00 | 0.00 | 0.00 | 46 | 1015.2 |
| 20260906064536 | 26 | 164 | 3.2 | 4.8 | 0.00 | 0.00 | 0.00 | 47 | 1014.9 |
| 20260906064037 | 26 | 157 | 1.6 | 1.6 | 0.00 | 0.00 | 0.00 | 48 | 1015.2 |
| 20260906063536 | 26 | 211 | 3.2 | 3.2 | 0.00 | 0.00 | 0.00 | 48 | 1015.2 |
| 20260906063036 | 26 | 177 | 3.2 | 3.2 | 0.00 | 0.00 | 0.00 | 50 | 1015.2 |
| 20260906062536 | 25 | 189 | 0.0 | 0.0 | 0.00 | 0.00 | 0.00 | 51 | 1015.2 |
| 20260906062037 | 25 | 202 | 4.8 | 4.8 | 0.00 | 0.00 | 0.00 | 51 | 1015.2 |
| 20260906061537 | 25 | 209 | 0.0 | 0.0 | 0.00 | 0.00 | 0.00 | 52 | 1015.2 |
| 20260906061037 | 25 | 102 | 0.0 | 0.0 | 0.00 | 0.00 | 0.00 | 52 | 1015.2 |
| 20260906060536 | 25 | 233 | 0.0 | 0.0 | 0.00 | 0.00 | 0.00 | 55 | 1015.2 |
| 20260906060036 | 24 | 146 | 3.2 | 3.2 | 0.00 | 0.00 | 0.00 | 55 | 1015.2 |
| 20260906055536 | 23 | 212 | 0.0 | 0.0 | 0.00 | 0.00 | 0.00 | 56 | 1014.9 |
| 20260906055036 | 24 | 258 | 4.8 | 4.8 | 0.00 | 0.00 | 0.00 | 54 | 1015.2 |
| 20260906054536 | 24 | 153 | 4.8 | 8.0 | 0.00 | 0.00 | 0.00 | 53 | 1015.2 |
| 20260906054036 | 24 | 172 | 3.2 | 3.2 | 0.00 | 0.00 | 0.00 | 54 | 1015.2 |
| 20260906053536 | 23 | 171 | 3.2 | 3.2 | 0.00 | 0.00 | 0.00 | 56 | 1014.9 |
| 20260906053036 | 23 | 276 | 3.2 | 3.2 | 0.00 | 0.00 | 0.00 | 56 | 1014.9 |
| 20260906052536 | 23 | 278 | 4.8 | 3.2 | 0.00 | 0.00 | 0.00 | 56 | 1015.2 |
| 20260906052038 | 23 | 273 | 4.8 | 3.2 | 0.00 | 0.00 | 0.00 | 54 | 1015.2 |
| 20260906051536 | 23 | 287 | 4.8 | 4.8 | 0.00 | 0.00 | 0.00 | 56 | 1015.2 |
| 20260906051036 | 23 | 226 | 4.8 | 4.8 | 0.00 | 0.00 | 0.00 | 57 | 1015.2 |
| 20260906050537 | 23 | 85 | 1.6 | 3.2 | 0.00 | 0.00 | 0.00 | 58 | 1014.9 |
| 20260906050036 | 22 | 45 | 0.0 | 0.0 | 0.00 | 0.00 | 0.00 | 60 | 1014.9 |
| 20260906045536 | 22 | 356 | 3.2 | 3.2 | 0.00 | 0.00 | 0.00 | 62 | 1014.9 |
| 20260906045036 | 22 | 35 | 4.8 | 4.8 | 0.00 | 0.00 | 0.00 | 62 | 1014.9 |
| 20260906044536 | 23 | 60 | 0.0 | 0.0 | 0.00 | 0.00 | 0.00 | 61 | 1014.9 |
| 20260906044036 | 23 | 52 | 0.0 | 0.0 | 0.00 | 0.00 | 0.00 | 61 | 1014.9 |
| 20260906043537 | 22 | 344 | 0.0 | 0.0 | 0.00 | 0.00 | 0.00 | 62 | 1015.2 |
| 20260906043036 | 22 | 77 | 0.0 | 0.0 | 0.00 | 0.00 | 0.00 | 64 | 1014.9 |
| 20260906042536 | 22 | 86 | 0.0 | 0.0 | 0.00 | 0.00 | 0.00 | 65 | 1014.9 |
| 20260906042036 | 21 | 99 | 0.0 | 0.0 | 0.00 | 0.00 | 0.00 | 67 | 1014.9 |
| 20260906041538 | 21 | 87 | 3.2 | 3.2 | 0.00 | 0.00 | 0.00 | 68 | 1014.9 |
| 20260906041036 | 21 | 59 | 3.2 | 4.8 | 0.00 | 0.00 | 0.00 | 68 | 1014.9 |
| 20260906040537 | 21 | 78 | 1.6 | 1.6 | 0.00 | 0.00 | 0.00 | 69 | 1014.9 |
| 20260906040036 | 21 | 41 | 1.6 | 3.2 | 0.00 | 0.00 | 0.00 | 68 | 1014.9 |
| 20260906035537 | 21 | 67 | 1.6 | 1.6 | 0.00 | 0.00 | 0.00 | 67 | 1014.9 |
| 20260906035037 | 21 | 98 | 0.0 | 0.0 | 0.00 | 0.00 | 0.00 | 69 | 1014.6 |
| 20260906034536 | 21 | 90 | 1.6 | 1.6 | 0.00 | 0.00 | 0.00 | 69 | 1014.6 |
| 20260906034036 | 20 | 98 | 4.8 | 3.2 | 0.00 | 0.00 | 0.00 | 70 | 1014.6 |
| 20260906033536 | 20 | 92 | 4.8 | 4.8 | 0.00 | 0.00 | 0.00 | 70 | 1014.6 |
| 20260906033037 | 21 | 109 | 3.2 | 3.2 | 0.00 | 0.00 | 0.00 | 69 | 1014.6 |
| 20260906032539 | 21 | 85 | 4.8 | 4.8 | 0.00 | 0.00 | 0.00 | 68 | 1014.6 |
| 20260906032036 | 21 | 73 | 4.8 | 8.0 | 0.00 | 0.00 | 0.00 | 66 | 1014.6 |
| 20260906031536 | 21 | 87 | 3.2 | 3.2 | 0.00 | 0.00 | 0.00 | 64 | 1014.2 |
| 20260906031036 | 21 | 84 | 1.6 | 3.2 | 0.00 | 0.00 | 0.00 | 60 | 1014.2 |
| 20260906030536 | 21 | 60 | 3.2 | 4.8 | 0.00 | 0.00 | 0.00 | 58 | 1014.2 |
| 20260906030036 | 21 | 93 | 0.0 | 0.0 | 0.00 | 0.00 | 0.00 | 58 | 1014.2 |
| 20260906025536 | 21 | 119 | 0.0 | 0.0 | 0.00 | 0.00 | 0.00 | 57 | 1013.9 |
| 20260906025036 | 21 | 107 | 0.0 | 0.0 | 0.00 | 0.00 | 0.00 | 57 | 1014.2 |
| 20260906024536 | 22 | 96 | 1.6 | 1.6 | 0.00 | 0.00 | 0.00 | 56 | 1014.2 |
| 20260906024037 | 21 | 108 | 0.0 | 0.0 | 0.00 | 0.00 | 0.00 | 57 | 1014.2 |
| 20260906023536 | 22 | 142 | 0.0 | 0.0 | 0.00 | 0.00 | 0.00 | 56 | 1014.2 |
| 20260906023036 | 22 | 140 | 0.0 | 0.0 | 0.00 | 0.00 | 0.00 | 55 | 1013.9 |
| 20260906022536 | 22 | 130 | 0.0 | 0.0 | 0.00 | 0.00 | 0.00 | 56 | 1013.9 |
| 20260906022036 | 22 | 136 | 0.0 | 0.0 | 0.00 | 0.00 | 0.00 | 55 | 1013.9 |
| 20260906021536 | 22 | 125 | 0.0 | 0.0 | 0.00 | 0.00 | 0.00 | 56 | 1013.9 |
| 20260906021037 | 22 | 85 | 0.0 | 0.0 | 0.00 | 0.00 | 0.00 | 55 | 1013.9 |
| 20260906020536 | 22 | 106 | 0.0 | 0.0 | 0.00 | 0.00 | 0.00 | 54 | 1013.5 |
| 20260906020036 | 22 | 108 | 0.0 | 0.0 | 0.00 | 0.00 | 0.00 | 55 | 1013.5 |
| 20260906015537 | 22 | 120 | 0.0 | 0.0 | 0.00 | 0.00 | 0.00 | 55 | 1013.5 |
| 20260906015036 | 22 | 126 | 0.0 | 0.0 | 0.00 | 0.00 | 0.00 | 55 | 1013.9 |
| 20260906014536 | 22 | 115 | 0.0 | 0.0 | 0.00 | 0.00 | 0.00 | 54 | 1013.5 |
| 20260906014037 | 22 | 116 | 0.0 | 0.0 | 0.00 | 0.00 | 0.00 | 55 | 1013.5 |
| 20260906013536 | 21 | 116 | 0.0 | 0.0 | 0.00 | 0.00 | 0.00 | 56 | 1013.9 |
| 20260906013036 | 22 | 82 | 0.0 | 0.0 | 0.00 | 0.00 | 0.00 | 55 | 1013.5 |
| 20260906012536 | 22 | 112 | 1.6 | 1.6 | 0.00 | 0.00 | 0.00 | 54 | 1013.9 |
| 20260906012036 | 22 | 159 | 1.6 | 1.6 | 0.00 | 0.00 | 0.00 | 55 | 1013.9 |
| 20260906011536 | 22 | 99 | 1.6 | 1.6 | 0.00 | 0.00 | 0.00 | 55 | 1013.9 |
| 20260906011036 | 22 | 148 | 0.0 | 0.0 | 0.00 | 0.00 | 0.00 | 55 | 1013.5 |
| 20260906010536 | 22 | 137 | 0.0 | 0.0 | 0.00 | 0.00 | 0.00 | 55 | 1013.5 |
| 20260906010037 | 22 | 118 | 0.0 | 0.0 | 0.00 | 0.00 | 0.00 | 55 | 1013.5 |
| 20260906005536 | 22 | 147 | 0.0 | 0.0 | 0.00 | 0.00 | 0.00 | 56 | 1013.9 |
| 20260906005036 | 22 | 122 | 3.2 | 3.2 | 0.00 | 0.00 | 0.00 | 56 | 1013.5 |
| 20260906004537 | 22 | 126 | 0.0 | 0.0 | 0.00 | 0.00 | 0.00 | 57 | 1013.9 |
| 20260906004036 | 22 | 88 | 0.0 | 0.0 | 0.00 | 0.00 | 0.00 | 57 | 1013.9 |
| 20260906003537 | 22 | 120 | 0.0 | 0.0 | 0.00 | 0.00 | 0.00 | 56 | 1013.9 |
| 20260906003038 | 22 | 125 | 0.0 | 0.0 | 0.00 | 0.00 | 0.00 | 56 | 1013.5 |
| 20260906002536 | 22 | 98 | 0.0 | 0.0 | 0.00 | 0.00 | 0.00 | 56 | 1013.5 |
| 20260906002036 | 22 | 119 | 0.0 | 0.0 | 0.00 | 0.00 | 0.00 | 56 | 1013.9 |
| 20260906001537 | 22 | 120 | 0.0 | 0.0 | 0.00 | 0.00 | 0.00 | 56 | 1013.9 |
| 20260906001036 | 22 | 102 | 1.6 | 1.6 | 0.00 | 0.00 | 0.00 | 56 | 1013.9 |
| 20260906000536 | 22 | 157 | 0.0 | 0.0 | 0.00 | 0.00 | 0.00 | 57 | 1013.9 |
| 20260906000036 | 22 | 111 | 0.0 | 0.0 | 0.00 | 0.00 | 0.00 | 57 | 1013.5 |
| 20260905235536 | 23 | 115 | 0.0 | 0.0 | 0.00 | 0.00 | 0.00 | 57 | 1014.2 |
| 20260905235036 | 23 | 171 | 0.0 | 0.0 | 0.00 | 0.00 | 0.00 | 56 | 1013.9 |
| 20260905234536 | 23 | 211 | 0.0 | 0.0 | 0.00 | 0.00 | 0.00 | 56 | 1013.9 |
| 20260905234038 | 22 | 144 | 0.0 | 0.0 | 0.00 | 0.00 | 0.00 | 57 | 1013.9 |
| 20260905233537 | 22 | 129 | 0.0 | 0.0 | 0.00 | 0.00 | 0.00 | 57 | 1013.9 |
| 20260905233036 | 23 | 156 | 0.0 | 0.0 | 0.00 | 0.00 | 0.00 | 56 | 1013.9 |
| 20260905232536 | 23 | 129 | 0.0 | 0.0 | 0.00 | 0.00 | 0.00 | 56 | 1013.9 |
| 20260905232037 | 23 | 121 | 0.0 | 0.0 | 0.00 | 0.00 | 0.00 | 57 | 1013.9 |
| 20260905231536 | 23 | 218 | 0.0 | 0.0 | 0.00 | 0.00 | 0.00 | 57 | 1014.2 |
| 20260905231037 | 22 | 240 | 0.0 | 0.0 | 0.00 | 0.00 | 0.00 | 57 | 1013.9 |
| 20260905230536 | 23 | 270 | 0.0 | 0.0 | 0.00 | 0.00 | 0.00 | 57 | 1013.9 |
| 20260905230036 | 23 | 251 | 1.6 | 1.6 | 0.00 | 0.00 | 0.00 | 57 | 1013.9 |
| 20260905225536 | 23 | 144 | 4.8 | 3.2 | 0.00 | 0.00 | 0.00 | 57 | 1013.9 |
| 20260905225036 | 22 | 264 | 1.6 | 1.6 | 0.00 | 0.00 | 0.00 | 57 | 1013.9 |
| 20260905224537 | 22 | 279 | 3.2 | 3.2 | 0.00 | 0.00 | 0.00 | 57 | 1013.9 |
| 20260905224036 | 22 | 242 | 3.2 | 4.8 | 0.00 | 0.00 | 0.00 | 57 | 1013.9 |
| 20260905223537 | 23 | 279 | 3.2 | 3.2 | 0.00 | 0.00 | 0.00 | 57 | 1013.9 |
| 20260905223036 | 23 | 236 | 4.8 | 4.8 | 0.00 | 0.00 | 0.00 | 56 | 1013.9 |
| 20260905222536 | 22 | 265 | 3.2 | 3.2 | 0.00 | 0.00 | 0.00 | 57 | 1013.9 |
| 20260905222036 | 23 | 248 | 4.8 | 8.0 | 0.00 | 0.00 | 0.00 | 57 | 1013.9 |
| 20260905221536 | 23 | 255 | 3.2 | 3.2 | 0.00 | 0.00 | 0.00 | 58 | 1013.9 |
| 20260905221036 | 23 | 254 | 3.2 | 3.2 | 0.00 | 0.00 | 0.00 | 57 | 1014.2 |
| 20260905220536 | 23 | 234 | 3.2 | 3.2 | 0.00 | 0.00 | 0.00 | 57 | 1013.9 |
| 20260905220036 | 23 | 265 | 4.8 | 8.0 | 0.00 | 0.00 | 0.00 | 57 | 1014.2 |
| 20260905215536 | 23 | 260 | 3.2 | 4.8 | 0.00 | 0.00 | 0.00 | 57 | 1014.2 |
| 20260905215036 | 23 | 267 | 8.0 | 11.3 | 0.00 | 0.00 | 0.00 | 57 | 1014.6 |
| 20260905214536 | 23 | 231 | 1.6 | 3.2 | 0.00 | 0.00 | 0.00 | 56 | 1014.2 |
| 20260905214036 | 23 | 261 | 1.6 | 1.6 | 0.00 | 0.00 | 0.00 | 56 | 1014.2 |
| 20260905213537 | 23 | 237 | 4.8 | 8.0 | 0.00 | 0.00 | 0.00 | 56 | 1014.2 |
| 20260905213036 | 23 | 273 | 6.4 | 11.3 | 0.00 | 0.00 | 0.00 | 55 | 1014.2 |
| 20260905212536 | 23 | 224 | 1.6 | 1.6 | 0.00 | 0.00 | 0.00 | 55 | 1014.2 |
| 20260905212036 | 23 | 257 | 1.6 | 1.6 | 0.00 | 0.00 | 0.00 | 54 | 1014.6 |
| 20260905211536 | 23 | 239 | 1.6 | 1.6 | 0.00 | 0.00 | 0.00 | 54 | 1014.6 |
| 20260905211036 | 23 | 241 | 3.2 | 3.2 | 0.00 | 0.00 | 0.00 | 54 | 1014.6 |
| 20260905210536 | 23 | 280 | 1.6 | 3.2 | 0.00 | 0.00 | 0.00 | 54 | 1014.2 |
| 20260905210036 | 23 | 278 | 4.8 | 4.8 | 0.00 | 0.00 | 0.00 | 53 | 1014.6 |
| 20260905205536 | 24 | 252 | 1.6 | 3.2 | 0.00 | 0.00 | 0.00 | 51 | 1014.2 |
| 20260905205036 | 24 | 220 | 1.6 | 1.6 | 0.00 | 0.00 | 0.00 | 50 | 1014.6 |
| 20260905204536 | 24 | 227 | 3.2 | 3.2 | 0.00 | 0.00 | 0.00 | 49 | 1014.6 |
| 20260905204036 | 24 | 268 | 1.6 | 1.6 | 0.00 | 0.00 | 0.00 | 49 | 1014.6 |
| 20260905203537 | 24 | 268 | 6.4 | 9.7 | 0.00 | 0.00 | 0.00 | 49 | 1014.6 |
| 20260905203036 | 24 | 250 | 0.0 | 0.0 | 0.00 | 0.00 | 0.00 | 48 | 1014.6 |
| 20260905202537 | 25 | 231 | 1.6 | 3.2 | 0.00 | 0.00 | 0.00 | 47 | 1014.6 |
| 20260905202036 | 25 | 187 | 0.0 | 0.0 | 0.00 | 0.00 | 0.00 | 46 | 1014.6 |
| 20260905201536 | 25 | 226 | 1.6 | 3.2 | 0.00 | 0.00 | 0.00 | 45 | 1014.2 |
| 20260905201036 | 25 | 264 | 3.2 | 3.2 | 0.00 | 0.00 | 0.00 | 45 | 1014.6 |
| 20260905200537 | 25 | 227 | 0.0 | 0.0 | 0.00 | 0.00 | 0.00 | 45 | 1014.6 |
| 20260905200037 | 25 | 268 | 8.0 | 8.0 | 0.00 | 0.00 | 0.00 | 43 | 1014.6 |
| 20260905195536 | 25 | 225 | 0.0 | 0.0 | 0.00 | 0.00 | 0.00 | 44 | 1014.9 |
| 20260905195037 | 25 | 256 | 1.6 | 3.2 | 0.00 | 0.00 | 0.00 | 43 | 1014.6 |
| 20260905194536 | 25 | 271 | 8.0 | 9.7 | 0.00 | 0.00 | 0.00 | 43 | 1014.9 |
| 20260905194036 | 25 | 248 | 0.0 | 0.0 | 0.00 | 0.00 | 0.00 | 44 | 1014.6 |
| 20260905193536 | 25 | 236 | 0.0 | 0.0 | 0.00 | 0.00 | 0.00 | 44 | 1014.9 |
| 20260905193036 | 25 | 246 | 3.2 | 3.2 | 0.00 | 0.00 | 0.00 | 44 | 1014.9 |
| 20260905192536 | 25 | 255 | 3.2 | 4.8 | 0.00 | 0.00 | 0.00 | 44 | 1014.6 |
| 20260905192036 | 25 | 232 | 0.0 | 0.0 | 0.00 | 0.00 | 0.00 | 44 | 1014.6 |
| 20260905191536 | 25 | 255 | 3.2 | 3.2 | 0.00 | 0.00 | 0.00 | 44 | 1014.6 |
| 20260905191036 | 25 | 222 | 4.8 | 4.8 | 0.00 | 0.00 | 0.00 | 44 | 1014.6 |
| 20260905190536 | 26 | 258 | 1.6 | 1.6 | 0.00 | 0.00 | 0.00 | 44 | 1014.6 |
| 20260905190037 | 26 | 239 | 3.2 | 4.8 | 0.00 | 0.00 | 0.00 | 45 | 1014.2 |
| 20260905185536 | 26 | 213 | 1.6 | 1.6 | 0.00 | 0.00 | 0.00 | 44 | 1014.2 |
| 20260905185036 | 26 | 227 | 6.4 | 8.0 | 0.00 | 0.00 | 0.00 | 44 | 1014.6 |
| 20260905184537 | 26 | 250 | 4.8 | 4.8 | 0.00 | 0.00 | 0.00 | 44 | 1014.6 |
| 20260905184036 | 26 | 242 | 3.2 | 4.8 | 0.00 | 0.00 | 0.00 | 44 | 1014.6 |
| 20260905183539 | 26 | 257 | 6.4 | 9.7 | 0.00 | 0.00 | 0.00 | 44 | 1014.6 |
| 20260905183036 | 26 | 231 | 0.0 | 0.0 | 0.00 | 0.00 | 0.00 | 44 | 1014.6 |
| 20260905182536 | 26 | 228 | 0.0 | 0.0 | 0.00 | 0.00 | 0.00 | 45 | 1014.6 |
| 20260905182036 | 26 | 248 | 3.2 | 3.2 | 0.00 | 0.00 | 0.00 | 44 | 1014.6 |
| 20260905181536 | 26 | 261 | 0.0 | 0.0 | 0.00 | 0.00 | 0.00 | 44 | 1014.6 |
| 20260905181036 | 26 | 245 | 0.0 | 0.0 | 0.00 | 0.00 | 0.00 | 44 | 1014.6 |
| 20260905180536 | 26 | 255 | 4.8 | 8.0 | 0.00 | 0.00 | 0.00 | 44 | 1014.6 |
| 20260905180036 | 26 | 249 | 6.4 | 9.7 | 0.00 | 0.00 | 0.00 | 43 | 1014.6 |
| 20260905175536 | 26 | 238 | 1.6 | 1.6 | 0.00 | 0.00 | 0.00 | 43 | 1014.6 |
| 20260905175036 | 26 | 229 | 3.2 | 4.8 | 0.00 | 0.00 | 0.00 | 42 | 1014.6 |
| 20260905174537 | 26 | 259 | 4.8 | 4.8 | 0.00 | 0.00 | 0.00 | 42 | 1014.6 |
| 20260905174036 | 26 | 200 | 4.8 | 8.0 | 0.00 | 0.00 | 0.00 | 41 | 1014.6 |
| 20260905173537 | 26 | 241 | 4.8 | 8.0 | 0.00 | 0.00 | 0.00 | 41 | 1014.2 |
| 20260905173037 | 27 | 270 | 3.2 | 3.2 | 0.00 | 0.00 | 0.00 | 41 | 1014.2 |
| 20260905172535 | 27 | 290 | 4.8 | 4.8 | 0.00 | 0.00 | 0.00 | 40 | 1014.2 |
| 20260905172036 | 27 | 237 | 3.2 | 3.2 | 0.00 | 0.00 | 0.00 | 40 | 1014.2 |
| 20260905171536 | 27 | 263 | 4.8 | 8.0 | 0.00 | 0.00 | 0.00 | 40 | 1014.2 |
| 20260905171036 | 27 | 256 | 3.2 | 3.2 | 0.00 | 0.00 | 0.00 | 40 | 1014.2 |
| 20260905170536 | 27 | 248 | 6.4 | 8.0 | 0.00 | 0.00 | 0.00 | 40 | 1014.2 |
| 20260905170037 | 27 | 172 | 1.6 | 3.2 | 0.00 | 0.00 | 0.00 | 39 | 1013.9 |
| 20260905165536 | 27 | 167 | 1.6 | 1.6 | 0.00 | 0.00 | 0.00 | 39 | 1013.9 |
| 20260905165036 | 27 | 198 | 0.0 | 0.0 | 0.00 | 0.00 | 0.00 | 39 | 1013.5 |
| 20260905164536 | 27 | 151 | 3.2 | 8.0 | 0.00 | 0.00 | 0.00 | 39 | 1013.5 |
| 20260905164036 | 27 | 244 | 1.6 | 1.6 | 0.00 | 0.00 | 0.00 | 39 | 1013.5 |
| 20260905163536 | 27 | 227 | 6.4 | 8.0 | 0.00 | 0.00 | 0.00 | 39 | 1013.5 |
| 20260905163036 | 27 | 179 | 0.0 | 0.0 | 0.00 | 0.00 | 0.00 | 40 | 1013.5 |
| 20260905162536 | 27 | 168 | 3.2 | 4.8 | 0.00 | 0.00 | 0.00 | 40 | 1013.5 |
| 20260905162036 | 28 | 152 | 1.6 | 1.6 | 0.00 | 0.00 | 0.00 | 40 | 1013.5 |
| 20260905161537 | 28 | 130 | 0.0 | 1.6 | 0.00 | 0.00 | 0.00 | 41 | 1013.5 |
| 20260905161036 | 28 | 160 | 3.2 | 4.8 | 0.00 | 0.00 | 0.00 | 40 | 1013.5 |
| 20260905160536 | 28 | 140 | 1.6 | 0.0 | 0.00 | 0.00 | 0.00 | 40 | 1013.5 |
| 20260905160036 | 28 | 164 | 3.2 | 4.8 | 0.00 | 0.00 | 0.00 | 40 | 1013.5 |
| 20260905155537 | 28 | 164 | 4.8 | 4.8 | 0.00 | 0.00 | 0.00 | 39 | 1013.2 |
| 20260905155036 | 28 | 254 | 1.6 | 1.6 | 0.00 | 0.00 | 0.00 | 39 | 1013.5 |
| 20260905154536 | 28 | 185 | 6.4 | 8.0 | 0.00 | 0.00 | 0.00 | 38 | 1013.5 |
| 20260905154036 | 28 | 209 | 4.8 | 8.0 | 0.00 | 0.00 | 0.00 | 38 | 1013.5 |
| 20260905153536 | 28 | 234 | 4.8 | 4.8 | 0.00 | 0.00 | 0.00 | 38 | 1013.5 |
| 20260905153036 | 29 | 256 | 9.7 | 14.5 | 0.00 | 0.00 | 0.00 | 38 | 1013.5 |
| 20260905152536 | 29 | 175 | 6.4 | 4.8 | 0.00 | 0.00 | 0.00 | 37 | 1013.2 |
| 20260905152036 | 30 | 145 | 3.2 | 3.2 | 0.00 | 0.00 | 0.00 | 37 | 1013.2 |
| 20260905151536 | 30 | 163 | 4.8 | 8.0 | 0.00 | 0.00 | 0.00 | 36 | 1013.2 |
| 20260905151037 | 30 | 209 | 1.6 | 1.6 | 0.00 | 0.00 | 0.00 | 35 | 1013.2 |
| 20260905150536 | 30 | 209 | 1.6 | 1.6 | 0.00 | 0.00 | 0.00 | 34 | 1013.2 |
| 20260905150038 | 30 | 211 | 6.4 | 8.0 | 0.00 | 0.00 | 0.00 | 34 | 1013.5 |
| 20260905145537 | 30 | 211 | 8.0 | 9.7 | 0.00 | 0.00 | 0.00 | 35 | 1013.5 |
| 20260905145037 | 31 | 213 | 8.0 | 12.9 | 0.00 | 0.00 | 0.00 | 35 | 1013.2 |
| 20260905144536 | 30 | 161 | 6.4 | 9.7 | 0.00 | 0.00 | 0.00 | 34 | 1013.2 |
| 20260905144036 | 31 | 196 | 4.8 | 4.8 | 0.00 | 0.00 | 0.00 | 34 | 1013.5 |
| 20260905143537 | 31 | 142 | 6.4 | 8.0 | 0.00 | 0.00 | 0.00 | 34 | 1013.5 |
| 20260905143036 | 31 | 233 | 8.0 | 9.7 | 0.00 | 0.00 | 0.00 | 33 | 1013.2 |
| 20260905142536 | 31 | 177 | 4.8 | 8.0 | 0.00 | 0.00 | 0.00 | 33 | 1013.2 |
| 20260905142037 | 31 | 192 | 6.4 | 9.7 | 0.00 | 0.00 | 0.00 | 33 | 1013.2 |
| 20260905141536 | 31 | 209 | 4.8 | 4.8 | 0.00 | 0.00 | 0.00 | 32 | 1013.2 |
| 20260905141037 | 31 | 153 | 6.4 | 8.0 | 0.00 | 0.00 | 0.00 | 31 | 1013.2 |
| 20260905140536 | 31 | 207 | 8.0 | 9.7 | 0.00 | 0.00 | 0.00 | 32 | 1013.2 |
| 20260905140036 | 31 | 197 | 4.8 | 8.0 | 0.00 | 0.00 | 0.00 | 31 | 1013.2 |
| 20260905135537 | 32 | 200 | 4.8 | 8.0 | 0.00 | 0.00 | 0.00 | 31 | 1013.2 |
| 20260905135036 | 32 | 179 | 8.0 | 9.7 | 0.00 | 0.00 | 0.00 | 30 | 1013.2 |
| 20260905134536 | 32 | 189 | 9.7 | 12.9 | 0.00 | 0.00 | 0.00 | 29 | 1013.2 |
| 20260905134036 | 32 | 253 | 4.8 | 4.8 | 0.00 | 0.00 | 0.00 | 27 | 1013.5 |
| 20260905133536 | 32 | 173 | 4.8 | 8.0 | 0.00 | 0.00 | 0.00 | 26 | 1013.2 |
| 20260905133036 | 33 | 242 | 8.0 | 14.5 | 0.00 | 0.00 | 0.00 | 26 | 1012.9 |
| 20260905132537 | 33 | 235 | 3.2 | 4.8 | 0.00 | 0.00 | 0.00 | 25 | 1013.2 |
| 20260905132036 | 33 | 211 | 4.8 | 9.7 | 0.00 | 0.00 | 0.00 | 24 | 1012.9 |
| 20260905131536 | 33 | 343 | 4.8 | 8.0 | 0.00 | 0.00 | 0.00 | 24 | 1012.9 |
| 20260905131038 | 33 | 271 | 8.0 | 9.7 | 0.00 | 0.00 | 0.00 | 23 | 1013.2 |
| 20260905130536 | 33 | 229 | 8.0 | 9.7 | 0.00 | 0.00 | 0.00 | 23 | 1013.2 |
| 20260905130036 | 33 | 203 | 3.2 | 4.8 | 0.00 | 0.00 | 0.00 | 22 | 1013.2 |
| 20260905125536 | 34 | 212 | 4.8 | 9.7 | 0.00 | 0.00 | 0.00 | 20 | 1013.2 |